createdAt,value
2023-03-30T00:00:02.427Z,8.15
2023-03-30T00:05:03.300Z,8.08
2023-03-30T00:10:02.930Z,8.16
2023-03-30T00:15:02.725Z,8.18
2023-03-30T00:20:02.572Z,8.03
2023-03-30T00:25:02.371Z,7.94
2023-03-30T00:30:02.376Z,7.82
2023-03-30T00:35:03.003Z,7.71
2023-03-30T00:40:02.930Z,7.73
2023-03-30T00:45:02.709Z,7.93
2023-03-30T00:50:02.454Z,7.97
2023-03-30T00:55:04.250Z,7.95
2023-03-30T01:00:02.836Z,8.05
2023-03-30T01:05:02.760Z,8.11
2023-03-30T01:10:02.571Z,8.23
2023-03-30T01:15:02.903Z,8.21
2023-03-30T01:20:02.449Z,8.26
2023-03-30T01:25:02.415Z,8.35
2023-03-30T01:30:03.143Z,8.46
2023-03-30T01:35:02.786Z,8.51
2023-03-30T01:40:02.498Z,8.49
2023-03-30T01:45:02.312Z,8.59
2023-03-30T01:50:02.282Z,8.58
2023-03-30T01:55:03.928Z,8.41
2023-03-30T02:00:02.774Z,8.32
2023-03-30T02:05:02.566Z,8.06
2023-03-30T02:10:02.390Z,7.91
2023-03-30T02:15:03.224Z,7.96
2023-03-30T02:20:03.323Z,8.01
2023-03-30T02:25:02.704Z,8.07
2023-03-30T02:30:02.527Z,8.13
2023-03-30T02:35:02.236Z,8.15
2023-03-30T02:40:03.121Z,8.2
2023-03-30T02:45:03.010Z,8.14
2023-03-30T02:50:02.795Z,7.91
2023-03-30T02:55:02.977Z,7.9
2023-03-30T03:00:02.603Z,7.96
2023-03-30T03:05:02.634Z,7.91
2023-03-30T03:10:02.198Z,7.67
2023-03-30T03:15:02.977Z,7.5
2023-03-30T03:20:02.899Z,7.38
2023-03-30T03:25:02.475Z,7.3
2023-03-30T03:30:02.457Z,7.26
2023-03-30T03:35:02.382Z,7.28
2023-03-30T03:40:02.500Z,7.28
2023-03-30T03:45:02.412Z,7.24
2023-03-30T03:50:03.087Z,7.33
2023-03-30T03:55:03.968Z,7.15
2023-03-30T04:00:02.603Z,7.06
2023-03-30T04:05:02.602Z,7.02
2023-03-30T04:10:02.463Z,7.27
2023-03-30T04:15:03.148Z,7.46
2023-03-30T04:20:02.901Z,7.29
2023-03-30T04:25:02.954Z,7.06
2023-03-30T04:30:02.664Z,6.95
2023-03-30T04:35:02.407Z,7.08
2023-03-30T04:40:02.290Z,7.2
2023-03-30T04:45:02.972Z,7.3
2023-03-30T04:50:02.715Z,7.36
2023-03-30T04:55:03.460Z,7.29
2023-03-30T05:00:02.279Z,7.37
2023-03-30T05:05:03.574Z,7.42
2023-03-30T05:10:02.815Z,7.46
2023-03-30T05:15:02.677Z,7.57
2023-03-30T05:20:02.410Z,7.6
2023-03-30T05:25:02.192Z,7.57
2023-03-30T05:30:02.329Z,7.6
2023-03-30T05:35:03.024Z,7.57
2023-03-30T05:40:03.257Z,7.62
2023-03-30T05:45:02.940Z,7.59
2023-03-30T05:50:02.639Z,7.54
2023-03-30T05:55:03.432Z,7.49
2023-03-30T06:00:02.436Z,7.49
2023-03-30T06:05:03.045Z,7.53
2023-03-30T06:10:02.676Z,7.63
2023-03-30T06:15:03.056Z,7.84
2023-03-30T06:20:02.236Z,7.98
2023-03-30T06:25:03.060Z,8.07
2023-03-30T06:30:03.226Z,8.2
2023-03-30T06:35:02.571Z,8.36
2023-03-30T06:40:02.264Z,8.39
2023-03-30T06:45:02.547Z,9.16
2023-03-30T06:50:03.053Z,9.73
2023-03-30T06:55:04.102Z,10.78
2023-03-30T07:00:02.692Z,12.46
2023-03-30T07:05:02.503Z,12.95
2023-03-30T07:10:02.508Z,12.11
2023-03-30T07:15:03.048Z,11.82
2023-03-30T07:20:03.008Z,12.24
2023-03-30T07:25:02.820Z,12.04
2023-03-30T07:30:10.558Z,12.07
2023-03-30T07:35:02.493Z,13.78
2023-03-30T07:40:02.230Z,13.56
2023-03-30T07:45:03.112Z,14.05
2023-03-30T07:50:02.780Z,14.73
2023-03-30T07:55:03.212Z,14.51
2023-03-30T08:00:02.776Z,14.25
2023-03-30T08:05:03.264Z,14.28
2023-03-30T08:10:02.972Z,14.13
2023-03-30T08:15:02.777Z,14.12
2023-03-30T08:20:03.028Z,14.01
2023-03-30T08:25:02.737Z,14.01
2023-03-30T08:30:02.529Z,14.34
2023-03-30T08:35:03.202Z,14.26
2023-03-30T08:40:03.058Z,14.1
2023-03-30T08:45:02.832Z,13.79
2023-03-30T08:50:02.898Z,13.71
2023-03-30T08:55:02.864Z,13.66
2023-03-30T09:00:03.126Z,13.71
2023-03-30T09:05:02.888Z,13.68
2023-03-30T09:10:02.884Z,13.73
2023-03-30T09:15:02.909Z,13.96
2023-03-30T09:20:02.552Z,14.13
2023-03-30T09:25:02.328Z,13.92
2023-03-30T09:30:03.118Z,13.86
2023-03-30T09:35:02.883Z,13.85
2023-03-30T09:40:02.677Z,14.01
2023-03-30T09:45:02.348Z,14.01
2023-03-30T09:50:02.599Z,14.27
2023-03-30T09:55:03.569Z,14.4
2023-03-30T10:00:03.096Z,14.62
2023-03-30T10:05:03.098Z,14.53
2023-03-30T10:10:02.851Z,14.43
2023-03-30T10:15:02.816Z,14.5
2023-03-30T10:20:11.353Z,14.57
2023-03-30T10:25:02.206Z,14.5
2023-03-30T10:30:02.959Z,14.42
2023-03-30T10:35:02.635Z,14.45
2023-03-30T10:40:02.323Z,14.29
2023-03-30T10:45:02.423Z,14.02
2023-03-30T10:50:03.104Z,13.94
2023-03-30T10:55:03.620Z,13.94
2023-03-30T11:00:02.599Z,13.94
2023-03-30T11:05:02.308Z,14.33
2023-03-30T11:10:02.351Z,14.59
2023-03-30T11:15:03.080Z,14.7
2023-03-30T11:20:02.849Z,14.9
2023-03-30T11:25:02.491Z,16.19
2023-03-30T11:30:02.267Z,15.56
2023-03-30T11:35:03.021Z,15.65
2023-03-30T11:40:03.038Z,16.07
2023-03-30T11:45:02.623Z,16.66
2023-03-30T11:50:02.568Z,16.88
2023-03-30T11:55:05.283Z,16.64
2023-03-30T12:00:02.608Z,15.63
2023-03-30T12:05:03.007Z,16.13
2023-03-30T12:10:04.008Z,16.69
2023-03-30T12:15:03.128Z,17.29
2023-03-30T12:20:03.050Z,17.45
2023-03-30T12:25:03.154Z,17.67
2023-03-30T12:30:03.713Z,16.12
2023-03-30T12:35:02.885Z,16.3
2023-03-30T12:40:02.620Z,15.91
2023-03-30T12:45:02.381Z,16.04
2023-03-30T12:50:03.184Z,16.32
2023-03-30T12:55:03.411Z,16.57
2023-03-30T13:00:02.828Z,16.63
2023-03-30T13:05:02.491Z,16.69
2023-03-30T13:10:04.175Z,16.57
2023-03-30T13:15:02.557Z,16.59
2023-03-30T13:20:02.389Z,16.79
2023-03-30T13:25:03.092Z,17.06
2023-03-30T13:30:02.880Z,16.67
2023-03-30T13:35:06.597Z,16.91
2023-03-30T13:40:02.873Z,17.34
2023-03-30T13:45:02.611Z,17.22
2023-03-30T13:50:02.292Z,16.87
2023-03-30T13:55:04.445Z,17.11
2023-03-30T14:00:02.843Z,17.71
2023-03-30T14:05:02.675Z,16.99
2023-03-30T14:10:02.436Z,16.39
2023-03-30T14:15:02.689Z,15.82
2023-03-30T14:20:02.538Z,12.26
2023-03-30T14:30:03.065Z,10
2023-03-30T14:40:02.858Z,10.09
2023-03-30T14:45:02.519Z,10.04
2023-03-30T14:50:02.405Z,9.91
2023-03-30T14:55:18.995Z,9.75
2023-03-30T15:00:02.528Z,9.61
2023-03-30T15:05:03.159Z,9.64
2023-03-30T15:10:02.855Z,9.55
2023-03-30T15:15:02.973Z,9.51
2023-03-30T15:25:02.714Z,9.62
2023-03-30T15:30:02.881Z,9.67
2023-03-30T15:35:02.325Z,9.83
2023-03-30T15:40:03.244Z,9.98
2023-03-30T15:45:02.955Z,10.88
2023-03-30T15:50:02.660Z,11.54
2023-03-30T15:55:03.309Z,11.25
2023-03-30T16:00:02.635Z,11.04
2023-03-30T16:05:02.353Z,10.96
2023-03-30T16:10:02.759Z,10.86
2023-03-30T16:15:02.690Z,11.13
2023-03-30T16:20:03.645Z,10.9
2023-03-30T16:25:03.121Z,11.88
2023-03-30T16:30:07.954Z,11.97
2023-03-30T16:35:02.990Z,11.23
2023-03-30T16:40:02.198Z,11.02
2023-03-30T16:45:03.033Z,11.3
2023-03-30T16:50:02.767Z,11.53
2023-03-30T16:55:03.682Z,11.65
2023-03-30T17:00:02.637Z,11.22
2023-03-30T17:05:02.442Z,10.83
2023-03-30T17:10:03.179Z,10.79
2023-03-30T17:15:02.920Z,10.5
2023-03-30T17:20:02.618Z,10.36
2023-03-30T17:25:02.809Z,10.3
2023-03-30T17:30:02.529Z,10.46
2023-03-30T17:35:02.222Z,10.38
2023-03-30T17:40:03.036Z,10.31
2023-03-30T17:45:02.789Z,10.6
2023-03-30T17:50:02.602Z,10.3
2023-03-30T17:55:03.476Z,10.05
2023-03-30T18:00:03.197Z,10.05
2023-03-30T18:05:02.796Z,9.76
2023-03-30T18:10:02.677Z,9.74
2023-03-30T18:15:02.533Z,9.69
2023-03-30T18:20:02.352Z,9.51
2023-03-30T18:25:02.315Z,9.46
2023-03-30T18:30:03.052Z,9.36
2023-03-30T18:35:02.963Z,9.45
2023-03-30T18:40:02.656Z,9.54
2023-03-30T18:45:02.969Z,9.45
2023-03-30T18:50:02.503Z,9.43
2023-03-30T18:55:03.441Z,9.54
2023-03-30T19:00:02.963Z,9.25
2023-03-30T19:05:03.000Z,9.08
2023-03-30T19:10:02.759Z,9.01
2023-03-30T19:15:02.516Z,8.85
2023-03-30T19:20:02.325Z,9.15
2023-03-30T19:25:03.113Z,9.09
2023-03-30T19:30:02.866Z,8.95
2023-03-30T19:35:02.499Z,8.85
2023-03-30T19:40:02.351Z,8.54
2023-03-30T19:45:03.055Z,8.69
2023-03-30T19:50:02.221Z,8.69
2023-03-30T19:55:03.418Z,8.54
2023-03-30T20:00:02.224Z,8.57
2023-03-30T20:05:03.106Z,8.56
2023-03-30T20:10:03.148Z,9.17
2023-03-30T20:15:03.495Z,9.28
2023-03-30T20:20:02.555Z,9.36
2023-03-30T20:25:02.260Z,9.51
2023-03-30T20:30:03.078Z,9.51
2023-03-30T20:35:02.803Z,9.57
2023-03-30T20:40:03.847Z,9.57
2023-03-30T20:45:03.180Z,9.47
2023-03-30T20:50:02.957Z,9.4
2023-03-30T20:55:03.196Z,9.41
2023-03-30T21:00:02.358Z,9.56
2023-03-30T21:05:03.097Z,9.78
2023-03-30T21:10:02.770Z,9.88
2023-03-30T21:15:02.849Z,9.88
2023-03-30T21:20:03.055Z,9.8
2023-03-30T21:25:02.811Z,9.89
2023-03-30T21:30:02.682Z,9.87
2023-03-30T21:35:02.367Z,9.73
2023-03-30T21:40:03.193Z,9.77
2023-03-30T21:45:02.927Z,9.76
2023-03-30T21:50:02.619Z,9.72
2023-03-30T21:55:03.559Z,9.72
2023-03-30T22:00:02.197Z,9.42
2023-03-30T22:05:02.367Z,9.23
2023-03-30T22:10:02.222Z,9.02
2023-03-30T22:15:03.128Z,8.87
2023-03-30T22:20:02.866Z,8.62
2023-03-30T22:25:02.600Z,8.6
2023-03-30T22:30:02.435Z,8.47
2023-03-30T22:35:03.270Z,8.16
2023-03-30T22:40:02.913Z,8.03
2023-03-30T22:45:02.600Z,8.17
2023-03-30T22:50:02.449Z,8.06
2023-03-30T22:55:03.773Z,8.21
2023-03-30T23:00:02.355Z,8.49
2023-03-30T23:05:02.168Z,8.64
2023-03-30T23:10:02.900Z,8.96
2023-03-30T23:15:03.015Z,9.05
2023-03-30T23:20:02.709Z,9.08
2023-03-30T23:25:02.506Z,9.16
2023-03-30T23:30:02.351Z,9.22
2023-03-30T23:35:03.151Z,9.16
2023-03-30T23:40:03.022Z,8.9
2023-03-30T23:45:02.361Z,9.02
2023-03-30T23:50:03.116Z,9.25
2023-03-30T23:55:04.156Z,9.26
